createdAt,value
2019-05-06T00:00:08.118Z,3.95
2019-05-06T00:02:39.227Z,3.90
2019-05-06T00:05:08.752Z,3.87
2019-05-06T00:07:38.401Z,3.87
2019-05-06T00:10:10.783Z,3.87
2019-05-06T00:12:40.136Z,3.87
2019-05-06T00:15:09.650Z,3.83
2019-05-06T00:17:38.985Z,3.80
2019-05-06T00:20:08.514Z,3.78
2019-05-06T00:22:37.903Z,3.77
2019-05-06T00:25:09.094Z,3.77
2019-05-06T00:27:40.151Z,3.79
2019-05-06T00:30:09.581Z,3.79
2019-05-06T00:32:39.014Z,3.80
2019-05-06T00:35:08.452Z,3.78
2019-05-06T00:37:37.820Z,3.78
2019-05-06T00:40:08.969Z,3.80
2019-05-06T00:42:39.979Z,3.79
2019-05-06T00:45:09.416Z,3.77
2019-05-06T00:47:38.809Z,3.76
2019-05-06T00:50:08.675Z,3.75
2019-05-06T00:52:38.101Z,3.73
2019-05-06T00:55:07.639Z,3.74
2019-05-06T00:57:45.875Z,3.72
2019-05-06T01:00:17.623Z,3.73
2019-05-06T01:02:47.047Z,3.72
2019-05-06T01:05:17.380Z,3.67
2019-05-06T01:07:46.747Z,3.65
2019-05-06T01:10:16.759Z,3.62
2019-05-06T01:12:50.437Z,3.59
2019-05-06T01:15:23.757Z,3.58
2019-05-06T01:17:53.851Z,3.56
2019-05-06T01:20:24.729Z,3.53
2019-05-06T01:22:54.473Z,3.51
2019-05-06T01:25:23.905Z,3.50
2019-05-06T01:27:54.058Z,3.46
2019-05-06T01:30:24.414Z,3.45
2019-05-06T01:32:54.390Z,3.43
2019-05-06T01:35:24.557Z,3.41
2019-05-06T01:38:11.792Z,3.38
2019-05-06T01:40:43.998Z,3.33
2019-05-06T01:43:14.962Z,3.26
2019-05-06T01:45:44.334Z,3.22
2019-05-06T01:48:15.356Z,3.18
2019-05-06T01:50:44.724Z,3.14
2019-05-06T01:53:14.091Z,3.08
2019-05-06T01:55:44.403Z,3.05
2019-05-06T01:58:14.557Z,3.01
2019-05-06T02:00:43.899Z,2.95
2019-05-06T02:03:14.804Z,2.92
2019-05-06T02:05:45.263Z,2.89
2019-05-06T02:08:14.640Z,2.89
2019-05-06T02:10:44.004Z,2.87
2019-05-06T02:13:14.360Z,2.85
2019-05-06T02:15:44.896Z,2.87
2019-05-06T02:18:14.533Z,2.86
2019-05-06T02:20:44.603Z,2.83
2019-05-06T02:23:15.552Z,2.83
2019-05-06T02:25:47.600Z,2.81
2019-05-06T02:28:16.977Z,2.77
2019-05-06T02:31:05.382Z,2.75
2019-05-06T02:33:46.201Z,2.73
2019-05-06T02:36:17.198Z,2.71
2019-05-06T02:38:51.439Z,2.71
2019-05-06T02:41:17.639Z,2.70
2019-05-06T02:43:47.020Z,2.67
2019-05-06T02:46:16.416Z,2.64
2019-05-06T02:48:54.295Z,2.61
2019-05-06T02:51:24.983Z,2.59
2019-05-06T02:53:54.377Z,2.55
2019-05-06T02:56:24.090Z,2.49
2019-05-06T02:58:53.906Z,2.48
2019-05-06T03:01:23.554Z,2.49
2019-05-06T03:03:53.748Z,2.53
2019-05-06T03:06:23.977Z,2.57
2019-05-06T03:08:54.566Z,2.63
2019-05-06T03:11:24.228Z,2.71
2019-05-06T03:13:54.003Z,2.78
2019-05-06T03:16:23.873Z,2.84
2019-05-06T03:18:53.649Z,2.89
2019-05-06T03:21:39.925Z,2.97
2019-05-06T03:24:14.637Z,3.01
2019-05-06T03:26:44.063Z,3.06
2019-05-06T03:29:13.749Z,3.11
2019-05-06T03:31:46.423Z,3.16
2019-05-06T03:34:35.429Z,3.20
2019-05-06T03:36:48.349Z,3.25
2019-05-06T03:39:16.366Z,3.28
2019-05-06T03:41:45.728Z,3.31
2019-05-06T03:44:16.760Z,3.33
2019-05-06T03:47:05.851Z,3.36
2019-05-06T03:49:36.611Z,3.40
2019-05-06T03:52:05.982Z,3.46
2019-05-06T03:54:35.599Z,3.52
2019-05-06T03:57:05.285Z,3.56
2019-05-06T03:59:36.123Z,3.63
2019-05-06T04:02:05.585Z,3.68
2019-05-06T04:04:34.939Z,3.73
2019-05-06T04:07:04.465Z,3.79
2019-05-06T04:09:36.863Z,3.84
2019-05-06T04:12:04.886Z,3.89
2019-05-06T04:14:34.271Z,3.94
2019-05-06T04:17:13.073Z,4.00
2019-05-06T04:19:49.427Z,4.04
2019-05-06T04:22:23.375Z,4.07
2019-05-06T04:24:54.006Z,4.10
2019-05-06T04:27:28.092Z,4.11
2019-05-06T04:29:57.453Z,4.15
2019-05-06T04:32:26.879Z,4.18
2019-05-06T04:34:56.265Z,4.23
2019-05-06T04:37:25.715Z,4.24
2019-05-06T04:39:55.092Z,4.26
2019-05-06T04:42:26.954Z,4.28
2019-05-06T04:44:55.689Z,4.29
2019-05-06T04:47:25.637Z,4.33
2019-05-06T04:49:55.001Z,4.34
2019-05-06T04:52:26.103Z,4.36
2019-05-06T04:54:55.601Z,4.39
2019-05-06T04:57:24.980Z,4.42
2019-05-06T04:59:55.499Z,4.47
2019-05-06T05:02:25.033Z,4.49
2019-05-06T05:04:56.035Z,4.52
2019-05-06T05:07:25.889Z,4.55
2019-05-06T05:09:56.946Z,4.56
2019-05-06T05:12:42.752Z,4.59
2019-05-06T05:15:22.847Z,4.65
2019-05-06T05:17:53.909Z,4.66
2019-05-06T05:20:36.084Z,4.72
2019-05-06T05:22:54.358Z,4.78
2019-05-06T05:25:23.792Z,4.83
2019-05-06T05:27:53.163Z,4.90
2019-05-06T05:30:22.535Z,4.97
2019-05-06T05:32:52.145Z,5.06
2019-05-06T05:35:22.710Z,5.16
2019-05-06T05:37:52.989Z,5.23
2019-05-06T05:40:22.575Z,5.33
2019-05-06T05:43:05.708Z,5.37
2019-05-06T05:45:35.250Z,5.45
2019-05-06T05:48:06.335Z,5.55
2019-05-06T05:50:41.911Z,5.61
2019-05-06T05:53:12.081Z,5.69
2019-05-06T05:55:42.426Z,5.75
2019-05-06T05:58:12.928Z,5.78
2019-05-06T06:00:42.684Z,5.79
2019-05-06T06:03:12.726Z,5.82
2019-05-06T06:05:42.840Z,5.84
2019-05-06T06:08:13.853Z,5.87
2019-05-06T06:10:45.844Z,5.92
2019-05-06T06:13:15.293Z,5.96
2019-05-06T06:16:02.893Z,6.03
2019-05-06T06:18:36.432Z,6.09
2019-05-06T06:21:27.864Z,6.15
2019-05-06T06:23:59.942Z,6.18
2019-05-06T06:26:29.292Z,6.22
2019-05-06T06:28:58.903Z,6.27
2019-05-06T06:31:35.901Z,6.29
2019-05-06T06:34:22.866Z,6.35
2019-05-06T06:37:10.149Z,6.41
2019-05-06T06:39:42.291Z,6.42
2019-05-06T06:42:12.671Z,6.41
2019-05-06T06:44:42.793Z,6.40
2019-05-06T06:47:12.996Z,6.41
2019-05-06T06:49:42.637Z,6.43
2019-05-06T06:52:14.797Z,6.47
2019-05-06T06:54:43.819Z,6.51
2019-05-06T06:57:21.770Z,6.56
2019-05-06T06:59:53.253Z,6.63
2019-05-06T07:02:33.112Z,6.64
2019-05-06T07:05:05.085Z,6.71
2019-05-06T07:07:43.526Z,6.70
2019-05-06T07:10:09.237Z,6.70
2019-05-06T07:12:38.603Z,6.71
2019-05-06T07:15:08.159Z,6.81
2019-05-06T07:17:37.520Z,7.09
2019-05-06T07:20:23.787Z,7.50
2019-05-06T07:22:53.141Z,8.02
2019-05-06T07:25:22.772Z,8.57
2019-05-06T07:27:52.970Z,8.97
2019-05-06T07:30:23.961Z,9.40
2019-05-06T07:32:53.321Z,9.93
2019-05-06T07:35:37.419Z,10.53
2019-05-06T07:37:53.822Z,10.91
2019-05-06T07:40:24.158Z,11.03
2019-05-06T07:42:55.219Z,11.25
2019-05-06T07:45:26.221Z,11.11
2019-05-06T07:48:06.142Z,10.89
2019-05-06T07:50:36.507Z,10.93
2019-05-06T07:53:09.072Z,11.34
2019-05-06T07:55:38.805Z,11.74
2019-05-06T07:58:08.227Z,12.17
2019-05-06T08:00:37.814Z,12.29
2019-05-06T08:03:07.184Z,12.18
2019-05-06T08:05:36.557Z,12.01
2019-05-06T08:08:05.918Z,11.81
2019-05-06T08:10:36.302Z,11.68
2019-05-06T08:13:05.738Z,11.71
2019-05-06T08:15:35.243Z,11.67
2019-05-06T08:18:04.749Z,11.55
2019-05-06T08:20:36.825Z,11.65
2019-05-06T08:23:12.585Z,11.77
2019-05-06T08:25:43.642Z,11.92
2019-05-06T08:28:13.422Z,12.03
2019-05-06T08:30:43.302Z,11.87
2019-05-06T08:33:13.053Z,11.70
2019-05-06T08:35:42.787Z,11.67
2019-05-06T08:38:12.350Z,11.67
2019-05-06T08:40:43.091Z,11.84
2019-05-06T08:43:13.231Z,12.00
2019-05-06T08:45:42.718Z,12.15
2019-05-06T08:48:12.979Z,12.22
2019-05-06T08:50:45.150Z,12.48
2019-05-06T08:53:24.276Z,12.56
2019-05-06T08:55:53.952Z,12.56
2019-05-06T08:58:24.959Z,12.81
2019-05-06T09:00:58.687Z,12.95
2019-05-06T09:03:28.045Z,12.96
2019-05-06T09:05:57.431Z,13.11
2019-05-06T09:08:26.821Z,13.06
2019-05-06T09:10:57.140Z,13.08
2019-05-06T09:13:26.523Z,13.07
2019-05-06T09:15:55.910Z,13.01
2019-05-06T09:18:25.259Z,12.85
2019-05-06T09:20:54.639Z,12.89
2019-05-06T09:23:27.291Z,12.94
2019-05-06T09:25:56.063Z,13.05
2019-05-06T09:28:27.079Z,13.18
2019-05-06T09:30:58.082Z,13.26
2019-05-06T09:33:29.092Z,13.29
2019-05-06T09:35:58.459Z,13.32
2019-05-06T09:38:27.804Z,13.43
2019-05-06T09:40:57.193Z,13.49
2019-05-06T09:43:26.583Z,13.27
2019-05-06T09:45:55.941Z,13.10
2019-05-06T09:48:29.728Z,12.91
2019-05-06T09:50:59.109Z,12.86
2019-05-06T09:53:38.778Z,12.72
2019-05-06T09:56:15.490Z,12.60
2019-05-06T09:58:45.039Z,12.52
2019-05-06T10:01:14.844Z,12.54
2019-05-06T10:03:44.236Z,12.60
2019-05-06T10:06:13.622Z,12.69
2019-05-06T10:08:43.006Z,12.64
2019-05-06T10:11:12.352Z,12.55
2019-05-06T10:13:43.074Z,12.42
2019-05-06T10:16:13.085Z,12.32
2019-05-06T10:18:42.678Z,12.18
2019-05-06T10:21:12.497Z,12.14
2019-05-06T10:23:42.445Z,12.10
2019-05-06T10:26:12.950Z,12.05
2019-05-06T10:28:44.093Z,12.01
2019-05-06T10:31:15.165Z,12.01
2019-05-06T10:34:03.075Z,12.10
2019-05-06T10:36:44.473Z,12.17
2019-05-06T10:39:15.996Z,12.06
2019-05-06T10:41:48.449Z,11.90
2019-05-06T10:44:26.681Z,11.76
2019-05-06T10:46:56.071Z,11.67
2019-05-06T10:49:25.445Z,11.54
2019-05-06T10:52:03.442Z,11.46
2019-05-06T10:54:32.809Z,11.40
2019-05-06T10:57:03.807Z,11.35
2019-05-06T10:59:33.163Z,11.35
2019-05-06T11:02:20.313Z,11.33
2019-05-06T11:04:49.666Z,11.31
2019-05-06T11:07:29.247Z,11.30
2019-05-06T11:09:50.091Z,11.30
2019-05-06T11:12:19.460Z,11.23
2019-05-06T11:14:48.837Z,11.08
2019-05-06T11:17:18.225Z,11.08
2019-05-06T11:19:47.566Z,10.99
2019-05-06T11:22:16.948Z,10.86
2019-05-06T11:24:46.301Z,10.79
2019-05-06T11:27:28.053Z,10.78
2019-05-06T11:29:48.423Z,10.82
2019-05-06T11:32:21.337Z,10.89
2019-05-06T11:34:52.681Z,10.92
2019-05-06T11:37:23.745Z,10.97
2019-05-06T11:39:53.315Z,11.02
2019-05-06T11:42:28.969Z,11.00
2019-05-06T11:44:53.733Z,11.00
2019-05-06T11:47:23.483Z,11.04
2019-05-06T11:49:56.219Z,11.05
2019-05-06T11:52:26.324Z,11.21
2019-05-06T11:54:57.303Z,11.41
2019-05-06T11:57:26.707Z,11.57
2019-05-06T11:59:56.062Z,11.62
2019-05-06T12:02:27.067Z,11.53
2019-05-06T12:04:56.422Z,11.56
2019-05-06T12:07:25.865Z,11.62
2019-05-06T12:09:55.222Z,11.71
2019-05-06T12:12:24.619Z,11.80
2019-05-06T12:14:54.035Z,11.90
2019-05-06T12:17:23.487Z,11.95
2019-05-06T12:19:53.077Z,11.90
2019-05-06T12:22:24.145Z,11.92
2019-05-06T12:24:53.535Z,12.00
2019-05-06T12:27:42.872Z,12.08
2019-05-06T12:30:12.403Z,12.20
2019-05-06T12:32:52.661Z,12.28
2019-05-06T12:35:22.078Z,12.34
2019-05-06T12:37:53.202Z,12.44
2019-05-06T12:40:22.608Z,12.52
2019-05-06T12:42:53.719Z,12.60
2019-05-06T12:45:25.669Z,12.73
2019-05-06T12:47:56.658Z,12.86
2019-05-06T12:50:26.022Z,13.00
2019-05-06T12:52:57.662Z,13.06
2019-05-06T12:55:26.457Z,13.08
2019-05-06T12:57:55.893Z,13.14
2019-05-06T13:00:26.260Z,13.13
2019-05-06T13:02:55.659Z,13.25
2019-05-06T13:05:25.037Z,13.28
2019-05-06T13:07:54.389Z,13.26
2019-05-06T13:10:23.844Z,13.29
2019-05-06T13:12:54.826Z,13.37
2019-05-06T13:15:24.654Z,13.55
2019-05-06T13:17:54.201Z,13.69
2019-05-06T13:20:23.714Z,13.72
2019-05-06T13:22:55.788Z,13.74
2019-05-06T13:25:25.171Z,13.85
2019-05-06T13:27:54.530Z,14.05
2019-05-06T13:30:24.136Z,14.20
2019-05-06T13:32:58.243Z,14.27
2019-05-06T13:35:27.768Z,14.35
2019-05-06T13:37:57.135Z,14.37
2019-05-06T13:40:27.233Z,14.31
2019-05-06T13:43:12.693Z,14.22
2019-05-06T13:45:42.953Z,14.17
2019-05-06T13:48:13.979Z,14.18
2019-05-06T13:50:45.106Z,14.30
2019-05-06T13:53:14.871Z,14.33
2019-05-06T13:55:44.202Z,14.34
2019-05-06T13:58:13.551Z,14.36
2019-05-06T14:00:42.937Z,14.27
2019-05-06T14:03:12.300Z,14.30
2019-05-06T14:05:42.538Z,14.17
2019-05-06T14:08:13.000Z,14.08
2019-05-06T14:10:42.514Z,14.06
2019-05-06T14:13:12.902Z,14.04
2019-05-06T14:15:42.376Z,14.07
2019-05-06T14:18:13.449Z,13.99
2019-05-06T14:20:43.029Z,13.96
2019-05-06T14:23:13.305Z,13.91
2019-05-06T14:26:04.210Z,13.76
2019-05-06T14:28:44.181Z,13.63
2019-05-06T14:31:18.305Z,13.60
2019-05-06T14:33:47.672Z,13.48
2019-05-06T14:36:17.086Z,13.19
2019-05-06T14:38:46.524Z,12.92
2019-05-06T14:41:26.024Z,12.64
2019-05-06T14:43:51.040Z,12.28
2019-05-06T14:46:22.770Z,12.03
2019-05-06T14:48:53.443Z,11.80
2019-05-06T14:51:22.608Z,11.50
2019-05-06T14:53:53.014Z,11.24
2019-05-06T14:56:24.172Z,10.97
2019-05-06T14:59:06.853Z,10.39
2019-05-06T15:01:37.166Z,10.39
2019-05-06T15:04:06.683Z,10.18
2019-05-06T15:06:36.098Z,10.01
2019-05-06T15:09:08.172Z,9.82
2019-05-06T15:11:37.539Z,9.62
2019-05-06T15:14:06.920Z,9.51
2019-05-06T15:16:36.265Z,9.44
2019-05-06T15:19:06.696Z,9.34
2019-05-06T15:21:38.474Z,9.25
2019-05-06T15:24:07.136Z,9.19
2019-05-06T15:26:36.497Z,9.13
2019-05-06T15:29:05.862Z,9.06
2019-05-06T15:31:52.937Z,9.01
2019-05-06T15:34:23.949Z,8.98
2019-05-06T15:36:57.677Z,8.96
2019-05-06T15:39:27.075Z,8.95
2019-05-06T15:41:56.412Z,8.95
2019-05-06T15:44:26.789Z,9.00
2019-05-06T15:46:56.157Z,9.02
2019-05-06T15:49:25.549Z,9.03
2019-05-06T15:51:54.923Z,9.05
2019-05-06T15:54:24.305Z,9.05
2019-05-06T15:56:53.692Z,9.08
2019-05-06T15:59:23.161Z,9.09
2019-05-06T16:01:53.479Z,9.12
2019-05-06T16:04:23.121Z,9.10
2019-05-06T16:06:53.479Z,9.07
2019-05-06T16:09:23.573Z,9.02
2019-05-06T16:11:53.548Z,8.99
2019-05-06T16:14:23.206Z,8.94
2019-05-06T16:16:52.963Z,8.90
2019-05-06T16:19:23.023Z,8.85
2019-05-06T16:21:53.347Z,8.79
2019-05-06T16:24:42.845Z,8.77
2019-05-06T16:27:12.424Z,8.79
2019-05-06T16:29:42.894Z,8.77
2019-05-06T16:32:12.405Z,8.77
2019-05-06T16:34:43.088Z,8.75
2019-05-06T16:37:12.751Z,8.73
2019-05-06T16:39:42.130Z,8.69
2019-05-06T16:42:13.078Z,8.63
2019-05-06T16:44:45.132Z,8.61
2019-05-06T16:47:15.093Z,8.57
2019-05-06T16:49:44.454Z,8.56
2019-05-06T16:52:13.818Z,8.56
2019-05-06T16:54:43.186Z,8.55
2019-05-06T16:57:20.182Z,8.52
2019-05-06T16:59:52.106Z,8.49
2019-05-06T17:02:22.978Z,8.48
2019-05-06T17:04:55.003Z,8.48
2019-05-06T17:07:24.388Z,8.49
2019-05-06T17:09:53.748Z,8.49
2019-05-06T17:12:23.155Z,8.48
2019-05-06T17:14:52.984Z,8.46
2019-05-06T17:17:22.905Z,8.46
2019-05-06T17:19:52.915Z,8.46
2019-05-06T17:22:22.962Z,8.44
2019-05-06T17:24:52.851Z,8.44
2019-05-06T17:27:23.590Z,8.47
2019-05-06T17:30:00.660Z,8.49
2019-05-06T17:32:33.330Z,8.51
2019-05-06T17:35:03.046Z,8.53
2019-05-06T17:37:46.528Z,8.54
2019-05-06T17:40:17.675Z,8.56
2019-05-06T17:42:47.068Z,8.58
2019-05-06T17:45:34.362Z,8.60
2019-05-06T17:51:17.879Z,8.64
2019-05-06T17:53:48.881Z,8.68
2019-05-06T17:56:18.234Z,8.69
2019-05-06T17:58:47.634Z,8.69
2019-05-06T18:01:19.127Z,8.71
2019-05-06T18:03:48.480Z,8.69
2019-05-06T18:06:17.844Z,8.72
2019-05-06T18:08:47.219Z,8.70
2019-05-06T18:11:16.585Z,8.73
2019-05-06T18:13:45.976Z,8.72
2019-05-06T18:16:15.344Z,8.70
2019-05-06T18:18:44.700Z,8.69
2019-05-06T18:21:14.098Z,8.70
2019-05-06T18:23:43.472Z,8.69
2019-05-06T18:26:12.914Z,8.67
2019-05-06T18:28:43.070Z,8.67
2019-05-06T18:31:13.461Z,8.66
2019-05-06T18:33:43.212Z,8.64
2019-05-06T18:36:13.576Z,8.63
2019-05-06T18:38:43.903Z,8.62
2019-05-06T18:41:13.512Z,8.61
2019-05-06T18:43:42.910Z,8.59
2019-05-06T18:46:12.366Z,8.57
2019-05-06T18:48:42.735Z,8.57
2019-05-06T18:51:13.141Z,8.57
2019-05-06T18:53:42.603Z,8.57
2019-05-06T18:56:12.959Z,8.54
2019-05-06T18:58:42.869Z,8.52
2019-05-06T19:01:13.476Z,8.47
2019-05-06T19:03:44.476Z,8.45
2019-05-06T19:06:13.824Z,8.43
2019-05-06T19:08:44.919Z,8.37
2019-05-06T19:11:16.010Z,8.34
2019-05-06T19:13:45.334Z,8.30
2019-05-06T19:16:15.693Z,8.28
2019-05-06T19:18:45.049Z,8.24
2019-05-06T19:21:14.516Z,8.19
2019-05-06T19:23:43.942Z,8.15
2019-05-06T19:26:13.316Z,8.13
2019-05-06T19:28:43.159Z,8.09
2019-05-06T19:31:12.509Z,8.02
2019-05-06T19:33:43.108Z,7.98
2019-05-06T19:36:12.739Z,7.94
2019-05-06T19:38:42.488Z,7.89
2019-05-06T19:41:12.887Z,7.84
2019-05-06T19:43:42.321Z,7.79
2019-05-06T19:46:12.761Z,7.73
2019-05-06T19:48:43.240Z,7.69
2019-05-06T19:51:12.658Z,7.64
2019-05-06T19:53:42.851Z,7.59
2019-05-06T19:56:12.433Z,7.56
2019-05-06T19:58:42.930Z,7.52
2019-05-06T20:01:12.362Z,7.47
2019-05-06T20:03:41.730Z,7.44
2019-05-06T20:06:15.403Z,7.42
2019-05-06T20:08:49.343Z,7.40
2019-05-06T20:11:23.087Z,7.38
2019-05-06T20:13:52.628Z,7.37
2019-05-06T20:16:22.997Z,7.32
2019-05-06T20:18:52.657Z,7.30
2019-05-06T20:21:23.052Z,7.27
2019-05-06T20:23:53.469Z,7.23
2019-05-06T20:26:22.827Z,7.21
2019-05-06T20:28:52.671Z,7.18
2019-05-06T20:31:22.738Z,7.16
2019-05-06T20:33:52.830Z,7.11
2019-05-06T20:36:22.695Z,7.06
2019-05-06T20:38:52.069Z,7.02
2019-05-06T20:41:22.180Z,6.98
2019-05-06T20:43:51.606Z,6.93
2019-05-06T20:46:21.976Z,6.88
2019-05-06T20:48:52.933Z,6.87
2019-05-06T20:51:22.412Z,6.83
2019-05-06T20:53:51.766Z,6.79
2019-05-06T20:56:21.939Z,6.76
2019-05-06T20:58:52.821Z,6.75
2019-05-06T21:01:22.269Z,6.73
2019-05-06T21:03:52.847Z,6.70
2019-05-06T21:06:22.606Z,6.69
2019-05-06T21:08:53.029Z,6.70
2019-05-06T21:11:28.813Z,6.69
2019-05-06T21:13:53.638Z,6.69
2019-05-06T21:16:23.001Z,6.67
2019-05-06T21:18:52.354Z,6.68
2019-05-06T21:21:22.061Z,6.69
2019-05-06T21:23:52.428Z,6.70
2019-05-06T21:26:22.660Z,6.74
2019-05-06T21:28:52.298Z,6.77
2019-05-06T21:31:21.655Z,6.81
2019-05-06T21:33:52.260Z,6.84
2019-05-06T21:36:23.043Z,6.88
2019-05-06T21:38:52.479Z,6.92
2019-05-06T21:41:22.825Z,6.96
2019-05-06T21:43:52.202Z,6.99
2019-05-06T21:46:22.543Z,7.00
2019-05-06T21:48:52.929Z,7.02
2019-05-06T21:51:22.368Z,7.02
2019-05-06T21:53:51.707Z,7.03
2019-05-06T21:56:22.586Z,7.03
2019-05-06T21:58:52.507Z,7.02
2019-05-06T22:01:22.215Z,7.03
2019-05-06T22:03:51.569Z,7.06
2019-05-06T22:06:22.519Z,7.07
2019-05-06T22:08:51.984Z,7.11
2019-05-06T22:11:24.290Z,7.13
2019-05-06T22:14:00.783Z,7.16
2019-05-06T22:16:23.458Z,7.18
2019-05-06T22:18:53.178Z,7.18
2019-05-06T22:21:24.336Z,7.19
2019-05-06T22:24:04.266Z,7.21
2019-05-06T22:26:33.162Z,7.22
2019-05-06T22:29:02.555Z,7.24
2019-05-06T22:31:33.132Z,7.26
2019-05-06T22:34:02.624Z,7.27
2019-05-06T22:36:32.418Z,7.27
2019-05-06T22:39:02.443Z,7.27
2019-05-06T22:41:33.586Z,7.25
2019-05-06T22:44:13.381Z,7.26
2019-05-06T22:46:34.001Z,7.26
2019-05-06T22:49:03.365Z,7.25
2019-05-06T22:51:32.711Z,7.25
2019-05-06T22:54:02.796Z,7.25
2019-05-06T22:56:32.629Z,7.25
2019-05-06T22:59:03.269Z,7.23
2019-05-06T23:01:54.334Z,7.22
2019-05-06T23:04:24.098Z,7.21
2019-05-06T23:06:53.661Z,7.23
2019-05-06T23:09:24.932Z,7.23
2019-05-06T23:11:54.501Z,7.24
2019-05-06T23:14:31.236Z,7.24
2019-05-06T23:16:54.943Z,7.26
2019-05-06T23:19:24.611Z,7.27
2019-05-06T23:21:54.058Z,7.27
2019-05-06T23:24:23.441Z,7.26
2019-05-06T23:26:54.837Z,7.23
2019-05-06T23:29:23.854Z,7.24
2019-05-06T23:31:53.225Z,7.24
2019-05-06T23:34:23.207Z,7.25
2019-05-06T23:37:02.713Z,7.25
2019-05-06T23:40:13.651Z,7.26
2019-05-06T23:43:19.221Z,7.24
2019-05-06T23:46:24.335Z,7.23
2019-05-06T23:49:29.645Z,7.21
2019-05-06T23:52:35.001Z,7.21
2019-05-06T23:55:42.008Z,7.20
2019-05-06T23:58:14.506Z,7.20
